sensor_id;sensor_type;location;lat;lon;timestamp;P1;durP1;ratioP1;P2;durP2;ratioP2
4565;SDS011;2295;51.050;14.608;2023-03-24T00:01:23;3.70;;;2.60;;
4565;SDS011;2295;51.050;14.608;2023-03-24T00:03:52;2.70;;;2.30;;
4565;SDS011;2295;51.050;14.608;2023-03-24T00:06:21;2.45;;;2.25;;
4565;SDS011;2295;51.050;14.608;2023-03-24T00:08:52;6.60;;;2.95;;
4565;SDS011;2295;51.050;14.608;2023-03-24T00:11:20;4.28;;;2.35;;
4565;SDS011;2295;51.050;14.608;2023-03-24T00:13:50;2.75;;;2.25;;
4565;SDS011;2295;51.050;14.608;2023-03-24T00:16:20;4.70;;;2.45;;
4565;SDS011;2295;51.050;14.608;2023-03-24T00:18:50;5.90;;;2.58;;
4565;SDS011;2295;51.050;14.608;2023-03-24T00:21:20;6.50;;;2.80;;
4565;SDS011;2295;51.050;14.608;2023-03-24T00:23:50;4.10;;;2.33;;
4565;SDS011;2295;51.050;14.608;2023-03-24T00:26:21;5.72;;;2.88;;
4565;SDS011;2295;51.050;14.608;2023-03-24T00:28:51;6.32;;;3.10;;
4565;SDS011;2295;51.050;14.608;2023-03-24T00:31:22;3.47;;;2.40;;
4565;SDS011;2295;51.050;14.608;2023-03-24T00:33:51;4.13;;;2.85;;
4565;SDS011;2295;51.050;14.608;2023-03-24T00:36:20;4.43;;;2.78;;
4565;SDS011;2295;51.050;14.608;2023-03-24T00:38:50;4.75;;;2.70;;
4565;SDS011;2295;51.050;14.608;2023-03-24T00:41:19;3.28;;;2.58;;
4565;SDS011;2295;51.050;14.608;2023-03-24T00:43:50;4.88;;;2.70;;
4565;SDS011;2295;51.050;14.608;2023-03-24T00:46:23;2.65;;;2.40;;
4565;SDS011;2295;51.050;14.608;2023-03-24T00:48:56;3.35;;;2.60;;
4565;SDS011;2295;51.050;14.608;2023-03-24T00:51:29;3.13;;;2.78;;
4565;SDS011;2295;51.050;14.608;2023-03-24T00:53:59;4.18;;;2.63;;
4565;SDS011;2295;51.050;14.608;2023-03-24T00:56:28;3.45;;;2.20;;
4565;SDS011;2295;51.050;14.608;2023-03-24T00:58:57;3.17;;;2.50;;
4565;SDS011;2295;51.050;14.608;2023-03-24T01:01:29;2.30;;;2.10;;
4565;SDS011;2295;51.050;14.608;2023-03-24T01:04:01;3.88;;;2.72;;
4565;SDS011;2295;51.050;14.608;2023-03-24T01:06:31;2.60;;;2.40;;
4565;SDS011;2295;51.050;14.608;2023-03-24T01:09:02;3.85;;;2.50;;
4565;SDS011;2295;51.050;14.608;2023-03-24T01:11:34;3.40;;;2.00;;
4565;SDS011;2295;51.050;14.608;2023-03-24T01:14:05;6.03;;;2.50;;
4565;SDS011;2295;51.050;14.608;2023-03-24T01:16:36;2.58;;;2.38;;
4565;SDS011;2295;51.050;14.608;2023-03-24T01:19:05;3.30;;;2.08;;
4565;SDS011;2295;51.050;14.608;2023-03-24T01:21:35;2.33;;;2.10;;
4565;SDS011;2295;51.050;14.608;2023-03-24T01:24:04;2.33;;;2.00;;
4565;SDS011;2295;51.050;14.608;2023-03-24T01:26:33;4.05;;;2.33;;
4565;SDS011;2295;51.050;14.608;2023-03-24T01:29:02;3.10;;;2.72;;
4565;SDS011;2295;51.050;14.608;2023-03-24T01:31:31;7.78;;;2.72;;
4565;SDS011;2295;51.050;14.608;2023-03-24T01:34:01;5.13;;;2.60;;
4565;SDS011;2295;51.050;14.608;2023-03-24T01:36:30;5.70;;;2.88;;
4565;SDS011;2295;51.050;14.608;2023-03-24T01:38:58;4.05;;;3.30;;
4565;SDS011;2295;51.050;14.608;2023-03-24T01:41:29;3.38;;;2.75;;
4565;SDS011;2295;51.050;14.608;2023-03-24T01:44:01;3.75;;;3.15;;
4565;SDS011;2295;51.050;14.608;2023-03-24T01:46:53;10.25;;;3.58;;
4565;SDS011;2295;51.050;14.608;2023-03-24T01:49:24;6.68;;;3.63;;
4565;SDS011;2295;51.050;14.608;2023-03-24T01:51:56;3.30;;;3.00;;
4565;SDS011;2295;51.050;14.608;2023-03-24T01:54:28;5.18;;;3.42;;
4565;SDS011;2295;51.050;14.608;2023-03-24T01:57:00;3.97;;;3.13;;
4565;SDS011;2295;51.050;14.608;2023-03-24T01:59:32;5.45;;;3.25;;
4565;SDS011;2295;51.050;14.608;2023-03-24T02:02:05;8.70;;;4.55;;
4565;SDS011;2295;51.050;14.608;2023-03-24T02:04:36;5.43;;;3.80;;
4565;SDS011;2295;51.050;14.608;2023-03-24T02:07:09;6.10;;;4.07;;
4565;SDS011;2295;51.050;14.608;2023-03-24T02:09:42;4.55;;;3.70;;
4565;SDS011;2295;51.050;14.608;2023-03-24T02:12:11;5.38;;;4.40;;
4565;SDS011;2295;51.050;14.608;2023-03-24T02:14:42;12.88;;;5.20;;
4565;SDS011;2295;51.050;14.608;2023-03-24T02:17:22;9.00;;;3.95;;
4565;SDS011;2295;51.050;14.608;2023-03-24T02:20:23;6.65;;;4.57;;
4565;SDS011;2295;51.050;14.608;2023-03-24T02:29:41;12.43;;;5.10;;
4565;SDS011;2295;51.050;14.608;2023-03-24T02:38:34;5.82;;;3.63;;
4565;SDS011;2295;51.050;14.608;2023-03-24T02:41:25;8.95;;;5.35;;
4565;SDS011;2295;51.050;14.608;2023-03-24T02:44:02;6.60;;;4.63;;
4565;SDS011;2295;51.050;14.608;2023-03-24T02:46:34;8.48;;;4.43;;
4565;SDS011;2295;51.050;14.608;2023-03-24T02:49:10;4.40;;;4.00;;
4565;SDS011;2295;51.050;14.608;2023-03-24T02:51:54;8.93;;;4.53;;
4565;SDS011;2295;51.050;14.608;2023-03-24T02:54:32;6.65;;;3.95;;
4565;SDS011;2295;51.050;14.608;2023-03-24T02:57:10;7.13;;;4.63;;
4565;SDS011;2295;51.050;14.608;2023-03-24T02:59:46;10.40;;;4.95;;
4565;SDS011;2295;51.050;14.608;2023-03-24T03:02:20;7.07;;;4.60;;
4565;SDS011;2295;51.050;14.608;2023-03-24T03:04:53;6.22;;;4.72;;
4565;SDS011;2295;51.050;14.608;2023-03-24T03:07:27;9.07;;;4.75;;
4565;SDS011;2295;51.050;14.608;2023-03-24T03:10:04;5.20;;;4.57;;
4565;SDS011;2295;51.050;14.608;2023-03-24T03:12:41;8.30;;;5.15;;
4565;SDS011;2295;51.050;14.608;2023-03-24T03:15:17;12.05;;;5.00;;
4565;SDS011;2295;51.050;14.608;2023-03-24T03:17:50;7.88;;;4.90;;
4565;SDS011;2295;51.050;14.608;2023-03-24T03:20:24;6.55;;;4.95;;
4565;SDS011;2295;51.050;14.608;2023-03-24T03:22:57;7.35;;;4.93;;
4565;SDS011;2295;51.050;14.608;2023-03-24T03:25:29;8.25;;;5.55;;
4565;SDS011;2295;51.050;14.608;2023-03-24T03:28:03;9.85;;;4.95;;
4565;SDS011;2295;51.050;14.608;2023-03-24T03:30:34;6.85;;;5.00;;
4565;SDS011;2295;51.050;14.608;2023-03-24T03:33:11;7.80;;;5.47;;
4565;SDS011;2295;51.050;14.608;2023-03-24T03:35:51;7.80;;;5.10;;
4565;SDS011;2295;51.050;14.608;2023-03-24T03:38:24;7.40;;;4.90;;
4565;SDS011;2295;51.050;14.608;2023-03-24T03:40:59;6.18;;;5.10;;
4565;SDS011;2295;51.050;14.608;2023-03-24T03:43:31;10.27;;;5.28;;
4565;SDS011;2295;51.050;14.608;2023-03-24T03:46:00;8.93;;;5.25;;
4565;SDS011;2295;51.050;14.608;2023-03-24T03:48:32;8.40;;;5.00;;
4565;SDS011;2295;51.050;14.608;2023-03-24T03:51:01;9.38;;;5.00;;
4565;SDS011;2295;51.050;14.608;2023-03-24T03:53:35;5.55;;;4.55;;
4565;SDS011;2295;51.050;14.608;2023-03-24T03:56:10;6.93;;;4.53;;
4565;SDS011;2295;51.050;14.608;2023-03-24T03:58:40;12.07;;;5.53;;
4565;SDS011;2295;51.050;14.608;2023-03-24T04:01:12;6.80;;;4.70;;
4565;SDS011;2295;51.050;14.608;2023-03-24T04:03:49;8.27;;;4.90;;
4565;SDS011;2295;51.050;14.608;2023-03-24T04:06:32;8.40;;;5.38;;
4565;SDS011;2295;51.050;14.608;2023-03-24T04:09:08;8.20;;;4.30;;
4565;SDS011;2295;51.050;14.608;2023-03-24T04:11:53;10.15;;;4.85;;
4565;SDS011;2295;51.050;14.608;2023-03-24T04:17:44;9.73;;;4.80;;
4565;SDS011;2295;51.050;14.608;2023-03-24T04:20:30;7.97;;;5.28;;
4565;SDS011;2295;51.050;14.608;2023-03-24T04:23:13;12.50;;;5.07;;
4565;SDS011;2295;51.050;14.608;2023-03-24T04:25:56;8.15;;;4.97;;
4565;SDS011;2295;51.050;14.608;2023-03-24T04:28:32;9.23;;;5.57;;
4565;SDS011;2295;51.050;14.608;2023-03-24T04:31:07;41.47;;;9.98;;
4565;SDS011;2295;51.050;14.608;2023-03-24T04:33:46;23.55;;;7.90;;
4565;SDS011;2295;51.050;14.608;2023-03-24T04:36:19;12.63;;;5.32;;
4565;SDS011;2295;51.050;14.608;2023-03-24T04:38:52;12.13;;;5.22;;
4565;SDS011;2295;51.050;14.608;2023-03-24T04:41:23;9.07;;;5.40;;
4565;SDS011;2295;51.050;14.608;2023-03-24T04:43:53;6.30;;;5.10;;
4565;SDS011;2295;51.050;14.608;2023-03-24T04:46:24;5.28;;;4.78;;
4565;SDS011;2295;51.050;14.608;2023-03-24T04:48:54;7.07;;;4.30;;
4565;SDS011;2295;51.050;14.608;2023-03-24T04:51:22;9.95;;;5.50;;
4565;SDS011;2295;51.050;14.608;2023-03-24T04:53:52;8.32;;;4.75;;
4565;SDS011;2295;51.050;14.608;2023-03-24T04:56:33;16.10;;;5.82;;
4565;SDS011;2295;51.050;14.608;2023-03-24T04:59:06;15.57;;;5.68;;
4565;SDS011;2295;51.050;14.608;2023-03-24T05:01:34;18.52;;;6.25;;
4565;SDS011;2295;51.050;14.608;2023-03-24T05:04:05;23.42;;;7.43;;
4565;SDS011;2295;51.050;14.608;2023-03-24T05:06:33;15.98;;;5.82;;
4565;SDS011;2295;51.050;14.608;2023-03-24T05:09:04;10.18;;;5.25;;
4565;SDS011;2295;51.050;14.608;2023-03-24T05:11:32;7.57;;;4.82;;
4565;SDS011;2295;51.050;14.608;2023-03-24T05:14:01;8.88;;;4.70;;
4565;SDS011;2295;51.050;14.608;2023-03-24T05:16:29;8.45;;;5.22;;
4565;SDS011;2295;51.050;14.608;2023-03-24T05:18:57;8.68;;;5.45;;
4565;SDS011;2295;51.050;14.608;2023-03-24T05:21:29;9.38;;;6.03;;
4565;SDS011;2295;51.050;14.608;2023-03-24T05:23:59;8.95;;;5.43;;
4565;SDS011;2295;51.050;14.608;2023-03-24T05:26:27;9.70;;;6.10;;
4565;SDS011;2295;51.050;14.608;2023-03-24T05:28:58;9.23;;;5.88;;
4565;SDS011;2295;51.050;14.608;2023-03-24T05:31:27;13.05;;;6.25;;
4565;SDS011;2295;51.050;14.608;2023-03-24T05:33:55;14.77;;;6.70;;
4565;SDS011;2295;51.050;14.608;2023-03-24T05:36:24;9.35;;;5.80;;
4565;SDS011;2295;51.050;14.608;2023-03-24T05:38:53;16.73;;;6.25;;
4565;SDS011;2295;51.050;14.608;2023-03-24T05:41:22;16.95;;;7.10;;
4565;SDS011;2295;51.050;14.608;2023-03-24T05:43:50;12.30;;;5.90;;
4565;SDS011;2295;51.050;14.608;2023-03-24T05:46:18;14.38;;;8.30;;
4565;SDS011;2295;51.050;14.608;2023-03-24T05:48:51;18.42;;;9.15;;
4565;SDS011;2295;51.050;14.608;2023-03-24T05:51:20;35.83;;;14.93;;
4565;SDS011;2295;51.050;14.608;2023-03-24T05:53:48;12.40;;;9.15;;
4565;SDS011;2295;51.050;14.608;2023-03-24T05:56:18;12.80;;;8.95;;
4565;SDS011;2295;51.050;14.608;2023-03-24T05:58:47;11.02;;;6.90;;
4565;SDS011;2295;51.050;14.608;2023-03-24T06:01:16;39.53;;;16.70;;
4565;SDS011;2295;51.050;14.608;2023-03-24T06:03:45;11.90;;;6.93;;
4565;SDS011;2295;51.050;14.608;2023-03-24T06:06:14;11.07;;;6.45;;
4565;SDS011;2295;51.050;14.608;2023-03-24T06:08:44;7.72;;;5.95;;
4565;SDS011;2295;51.050;14.608;2023-03-24T06:11:12;5.97;;;5.00;;
4565;SDS011;2295;51.050;14.608;2023-03-24T06:13:43;8.05;;;5.13;;
4565;SDS011;2295;51.050;14.608;2023-03-24T06:16:11;8.43;;;5.43;;
4565;SDS011;2295;51.050;14.608;2023-03-24T06:18:39;8.00;;;5.35;;
4565;SDS011;2295;51.050;14.608;2023-03-24T06:21:08;5.00;;;3.90;;
4565;SDS011;2295;51.050;14.608;2023-03-24T06:23:36;7.18;;;4.38;;
4565;SDS011;2295;51.050;14.608;2023-03-24T06:26:07;6.50;;;4.28;;
4565;SDS011;2295;51.050;14.608;2023-03-24T06:28:37;7.00;;;4.05;;
4565;SDS011;2295;51.050;14.608;2023-03-24T06:31:09;6.95;;;3.88;;
4565;SDS011;2295;51.050;14.608;2023-03-24T06:33:40;7.53;;;4.10;;
4565;SDS011;2295;51.050;14.608;2023-03-24T06:36:09;5.90;;;3.83;;
4565;SDS011;2295;51.050;14.608;2023-03-24T06:38:39;9.55;;;3.70;;
4565;SDS011;2295;51.050;14.608;2023-03-24T06:41:08;5.00;;;3.78;;
4565;SDS011;2295;51.050;14.608;2023-03-24T06:43:37;6.43;;;3.90;;
4565;SDS011;2295;51.050;14.608;2023-03-24T06:46:05;6.25;;;3.50;;
4565;SDS011;2295;51.050;14.608;2023-03-24T06:48:36;6.75;;;3.67;;
4565;SDS011;2295;51.050;14.608;2023-03-24T06:51:05;5.68;;;3.20;;
4565;SDS011;2295;51.050;14.608;2023-03-24T06:53:34;4.68;;;3.60;;
4565;SDS011;2295;51.050;14.608;2023-03-24T06:56:03;4.50;;;3.38;;
4565;SDS011;2295;51.050;14.608;2023-03-24T06:58:32;7.13;;;3.00;;
4565;SDS011;2295;51.050;14.608;2023-03-24T07:01:00;5.50;;;3.40;;
4565;SDS011;2295;51.050;14.608;2023-03-24T07:03:29;4.28;;;3.20;;
4565;SDS011;2295;51.050;14.608;2023-03-24T07:05:59;13.05;;;6.85;;
4565;SDS011;2295;51.050;14.608;2023-03-24T07:08:27;8.18;;;5.82;;
4565;SDS011;2295;51.050;14.608;2023-03-24T07:11:04;29.00;;;17.85;;
4565;SDS011;2295;51.050;14.608;2023-03-24T07:13:35;22.58;;;14.35;;
4565;SDS011;2295;51.050;14.608;2023-03-24T07:16:03;53.50;;;30.17;;
4565;SDS011;2295;51.050;14.608;2023-03-24T07:18:32;9.48;;;7.30;;
4565;SDS011;2295;51.050;14.608;2023-03-24T07:21:03;8.07;;;5.93;;
4565;SDS011;2295;51.050;14.608;2023-03-24T07:23:31;10.13;;;4.40;;
4565;SDS011;2295;51.050;14.608;2023-03-24T07:26:00;8.32;;;4.00;;
4565;SDS011;2295;51.050;14.608;2023-03-24T07:28:28;5.68;;;4.25;;
4565;SDS011;2295;51.050;14.608;2023-03-24T07:31:00;6.47;;;3.75;;
4565;SDS011;2295;51.050;14.608;2023-03-24T07:33:29;8.38;;;3.95;;
4565;SDS011;2295;51.050;14.608;2023-03-24T07:35:58;5.47;;;4.30;;
4565;SDS011;2295;51.050;14.608;2023-03-24T07:38:28;6.43;;;3.60;;
4565;SDS011;2295;51.050;14.608;2023-03-24T07:40:57;6.97;;;3.70;;
4565;SDS011;2295;51.050;14.608;2023-03-24T07:43:26;8.90;;;3.83;;
4565;SDS011;2295;51.050;14.608;2023-03-24T07:45:54;7.50;;;6.05;;
4565;SDS011;2295;51.050;14.608;2023-03-24T07:48:23;10.68;;;3.95;;
4565;SDS011;2295;51.050;14.608;2023-03-24T07:50:51;9.15;;;5.10;;
4565;SDS011;2295;51.050;14.608;2023-03-24T07:53:20;14.70;;;4.10;;
4565;SDS011;2295;51.050;14.608;2023-03-24T07:55:50;16.45;;;6.20;;
4565;SDS011;2295;51.050;14.608;2023-03-24T07:58:18;19.70;;;4.45;;
4565;SDS011;2295;51.050;14.608;2023-03-24T08:00:46;5.60;;;4.45;;
4565;SDS011;2295;51.050;14.608;2023-03-24T08:03:15;16.63;;;8.52;;
4565;SDS011;2295;51.050;14.608;2023-03-24T08:05:43;7.38;;;5.07;;
4565;SDS011;2295;51.050;14.608;2023-03-24T08:08:12;6.05;;;3.55;;
4565;SDS011;2295;51.050;14.608;2023-03-24T08:10:41;9.10;;;4.80;;
4565;SDS011;2295;51.050;14.608;2023-03-24T08:13:12;9.18;;;5.72;;
4565;SDS011;2295;51.050;14.608;2023-03-24T08:15:41;4.88;;;4.38;;
4565;SDS011;2295;51.050;14.608;2023-03-24T08:18:09;6.38;;;3.92;;
4565;SDS011;2295;51.050;14.608;2023-03-24T08:20:38;8.00;;;4.40;;
4565;SDS011;2295;51.050;14.608;2023-03-24T08:23:06;4.03;;;3.55;;
4565;SDS011;2295;51.050;14.608;2023-03-24T08:25:35;7.68;;;5.65;;
4565;SDS011;2295;51.050;14.608;2023-03-24T08:28:04;9.15;;;6.72;;
4565;SDS011;2295;51.050;14.608;2023-03-24T08:30:34;8.88;;;5.68;;
4565;SDS011;2295;51.050;14.608;2023-03-24T08:33:02;10.27;;;4.50;;
4565;SDS011;2295;51.050;14.608;2023-03-24T08:35:31;7.40;;;4.55;;
4565;SDS011;2295;51.050;14.608;2023-03-24T08:38:04;14.77;;;6.68;;
4565;SDS011;2295;51.050;14.608;2023-03-24T08:40:34;7.35;;;4.85;;
4565;SDS011;2295;51.050;14.608;2023-03-24T08:43:04;5.28;;;4.70;;
4565;SDS011;2295;51.050;14.608;2023-03-24T08:45:36;8.07;;;6.05;;
4565;SDS011;2295;51.050;14.608;2023-03-24T08:48:05;9.43;;;5.35;;
4565;SDS011;2295;51.050;14.608;2023-03-24T08:50:35;9.20;;;4.45;;
4565;SDS011;2295;51.050;14.608;2023-03-24T08:53:05;6.20;;;4.35;;
4565;SDS011;2295;51.050;14.608;2023-03-24T08:55:33;6.38;;;4.10;;
4565;SDS011;2295;51.050;14.608;2023-03-24T08:58:03;4.30;;;3.72;;
4565;SDS011;2295;51.050;14.608;2023-03-24T09:00:31;6.53;;;4.13;;
4565;SDS011;2295;51.050;14.608;2023-03-24T09:03:01;3.88;;;3.58;;
4565;SDS011;2295;51.050;14.608;2023-03-24T09:05:32;6.20;;;3.63;;
4565;SDS011;2295;51.050;14.608;2023-03-24T09:08:10;5.80;;;3.88;;
4565;SDS011;2295;51.050;14.608;2023-03-24T09:10:39;4.33;;;3.60;;
4565;SDS011;2295;51.050;14.608;2023-03-24T09:13:08;6.23;;;3.67;;
4565;SDS011;2295;51.050;14.608;2023-03-24T09:15:36;6.47;;;3.33;;
4565;SDS011;2295;51.050;14.608;2023-03-24T09:18:06;3.37;;;3.07;;
4565;SDS011;2295;51.050;14.608;2023-03-24T09:20:35;3.83;;;3.30;;
4565;SDS011;2295;51.050;14.608;2023-03-24T09:23:03;4.03;;;3.10;;
4565;SDS011;2295;51.050;14.608;2023-03-24T09:25:31;5.80;;;4.00;;
4565;SDS011;2295;51.050;14.608;2023-03-24T09:28:00;6.10;;;4.00;;
4565;SDS011;2295;51.050;14.608;2023-03-24T09:30:28;5.43;;;3.43;;
4565;SDS011;2295;51.050;14.608;2023-03-24T09:33:00;4.60;;;3.60;;
4565;SDS011;2295;51.050;14.608;2023-03-24T09:35:30;7.32;;;3.53;;
4565;SDS011;2295;51.050;14.608;2023-03-24T09:37:58;5.37;;;3.20;;
4565;SDS011;2295;51.050;14.608;2023-03-24T09:40:28;6.60;;;3.47;;
4565;SDS011;2295;51.050;14.608;2023-03-24T09:43:00;5.03;;;4.00;;
4565;SDS011;2295;51.050;14.608;2023-03-24T09:45:32;4.13;;;3.50;;
4565;SDS011;2295;51.050;14.608;2023-03-24T09:48:04;5.63;;;3.33;;
4565;SDS011;2295;51.050;14.608;2023-03-24T09:50:40;5.55;;;4.28;;
4565;SDS011;2295;51.050;14.608;2023-03-24T09:53:18;9.00;;;4.45;;
4565;SDS011;2295;51.050;14.608;2023-03-24T09:55:56;5.35;;;3.92;;
4565;SDS011;2295;51.050;14.608;2023-03-24T09:58:29;5.70;;;4.35;;
4565;SDS011;2295;51.050;14.608;2023-03-24T10:01:02;7.30;;;3.42;;
4565;SDS011;2295;51.050;14.608;2023-03-24T10:03:31;5.80;;;3.80;;
4565;SDS011;2295;51.050;14.608;2023-03-24T10:06:04;4.72;;;3.50;;
4565;SDS011;2295;51.050;14.608;2023-03-24T10:08:36;5.65;;;3.95;;
4565;SDS011;2295;51.050;14.608;2023-03-24T10:11:09;7.03;;;3.70;;
4565;SDS011;2295;51.050;14.608;2023-03-24T10:13:49;8.10;;;4.45;;
4565;SDS011;2295;51.050;14.608;2023-03-24T10:16:31;4.85;;;3.92;;
4565;SDS011;2295;51.050;14.608;2023-03-24T10:19:10;7.65;;;4.70;;
4565;SDS011;2295;51.050;14.608;2023-03-24T10:21:53;10.23;;;6.32;;
4565;SDS011;2295;51.050;14.608;2023-03-24T10:24:28;6.30;;;4.55;;
4565;SDS011;2295;51.050;14.608;2023-03-24T10:27:04;8.65;;;4.13;;
4565;SDS011;2295;51.050;14.608;2023-03-24T10:29:41;8.82;;;4.40;;
4565;SDS011;2295;51.050;14.608;2023-03-24T10:32:13;7.53;;;4.53;;
4565;SDS011;2295;51.050;14.608;2023-03-24T10:34:47;5.40;;;4.00;;
4565;SDS011;2295;51.050;14.608;2023-03-24T10:37:21;5.30;;;4.30;;
4565;SDS011;2295;51.050;14.608;2023-03-24T10:39:49;6.10;;;4.35;;
4565;SDS011;2295;51.050;14.608;2023-03-24T10:42:20;7.20;;;3.92;;
4565;SDS011;2295;51.050;14.608;2023-03-24T10:44:52;8.18;;;4.38;;
4565;SDS011;2295;51.050;14.608;2023-03-24T10:47:23;9.50;;;4.97;;
4565;SDS011;2295;51.050;14.608;2023-03-24T10:49:55;4.28;;;3.45;;
4565;SDS011;2295;51.050;14.608;2023-03-24T10:52:39;6.07;;;4.00;;
4565;SDS011;2295;51.050;14.608;2023-03-24T10:55:13;5.30;;;4.00;;
4565;SDS011;2295;51.050;14.608;2023-03-24T10:57:45;6.05;;;3.85;;
4565;SDS011;2295;51.050;14.608;2023-03-24T11:00:16;6.10;;;4.90;;
4565;SDS011;2295;51.050;14.608;2023-03-24T11:02:53;5.30;;;4.17;;
4565;SDS011;2295;51.050;14.608;2023-03-24T11:05:27;4.63;;;3.80;;
4565;SDS011;2295;51.050;14.608;2023-03-24T11:08:11;5.40;;;3.30;;
4565;SDS011;2295;51.050;14.608;2023-03-24T11:10:52;7.73;;;4.20;;
4565;SDS011;2295;51.050;14.608;2023-03-24T11:13:25;4.70;;;3.60;;
4565;SDS011;2295;51.050;14.608;2023-03-24T11:16:03;5.30;;;3.40;;
4565;SDS011;2295;51.050;14.608;2023-03-24T11:18:37;5.40;;;3.17;;
4565;SDS011;2295;51.050;14.608;2023-03-24T11:21:20;5.07;;;3.07;;
4565;SDS011;2295;51.050;14.608;2023-03-24T11:23:50;7.17;;;2.93;;
4565;SDS011;2295;51.050;14.608;2023-03-24T11:26:20;6.30;;;3.60;;
4565;SDS011;2295;51.050;14.608;2023-03-24T11:28:55;4.77;;;2.97;;
4565;SDS011;2295;51.050;14.608;2023-03-24T11:31:25;4.97;;;3.60;;
4565;SDS011;2295;51.050;14.608;2023-03-24T11:33:56;12.20;;;3.40;;
4565;SDS011;2295;51.050;14.608;2023-03-24T11:36:36;3.53;;;3.03;;
4565;SDS011;2295;51.050;14.608;2023-03-24T11:39:14;4.17;;;3.60;;
4565;SDS011;2295;51.050;14.608;2023-03-24T11:44:30;5.57;;;2.93;;
4565;SDS011;2295;51.050;14.608;2023-03-24T11:47:08;4.30;;;3.47;;
4565;SDS011;2295;51.050;14.608;2023-03-24T11:49:41;3.10;;;2.80;;
4565;SDS011;2295;51.050;14.608;2023-03-24T11:52:14;2.80;;;2.60;;
4565;SDS011;2295;51.050;14.608;2023-03-24T11:54:49;3.50;;;3.00;;
4565;SDS011;2295;51.050;14.608;2023-03-24T11:57:19;6.07;;;2.83;;
4565;SDS011;2295;51.050;14.608;2023-03-24T11:59:56;2.93;;;2.70;;
4565;SDS011;2295;51.050;14.608;2023-03-24T12:02:35;6.10;;;3.17;;
4565;SDS011;2295;51.050;14.608;2023-03-24T12:05:20;4.30;;;2.80;;
4565;SDS011;2295;51.050;14.608;2023-03-24T12:10:56;6.80;;;2.70;;
4565;SDS011;2295;51.050;14.608;2023-03-24T12:13:34;2.50;;;2.30;;
4565;SDS011;2295;51.050;14.608;2023-03-24T12:16:06;4.80;;;3.07;;
4565;SDS011;2295;51.050;14.608;2023-03-24T12:18:54;6.90;;;2.60;;
4565;SDS011;2295;51.050;14.608;2023-03-24T12:21:44;3.50;;;2.47;;
4565;SDS011;2295;51.050;14.608;2023-03-24T12:24:25;2.58;;;1.90;;
4565;SDS011;2295;51.050;14.608;2023-03-24T12:27:02;2.28;;;2.00;;
4565;SDS011;2295;51.050;14.608;2023-03-24T12:29:35;9.93;;;1.77;;
4565;SDS011;2295;51.050;14.608;2023-03-24T12:32:24;5.23;;;2.60;;
4565;SDS011;2295;51.050;14.608;2023-03-24T12:35:19;3.30;;;2.30;;
4565;SDS011;2295;51.050;14.608;2023-03-24T12:38:18;2.73;;;1.90;;
4565;SDS011;2295;51.050;14.608;2023-03-24T12:41:06;1.80;;;1.70;;
4565;SDS011;2295;51.050;14.608;2023-03-24T12:44:12;5.63;;;2.07;;
4565;SDS011;2295;51.050;14.608;2023-03-24T12:46:51;2.03;;;1.83;;
4565;SDS011;2295;51.050;14.608;2023-03-24T12:49:34;4.93;;;2.23;;
4565;SDS011;2295;51.050;14.608;2023-03-24T12:55:25;2.33;;;2.13;;
4565;SDS011;2295;51.050;14.608;2023-03-24T12:58:01;6.83;;;2.70;;
4565;SDS011;2295;51.050;14.608;2023-03-24T13:00:37;11.90;;;4.23;;
4565;SDS011;2295;51.050;14.608;2023-03-24T13:03:10;9.80;;;3.33;;
4565;SDS011;2295;51.050;14.608;2023-03-24T13:05:42;1.60;;;1.47;;
4565;SDS011;2295;51.050;14.608;2023-03-24T13:08:18;2.93;;;1.87;;
4565;SDS011;2295;51.050;14.608;2023-03-24T13:10:55;2.23;;;2.03;;
4565;SDS011;2295;51.050;14.608;2023-03-24T13:13:28;3.57;;;2.70;;
4565;SDS011;2295;51.050;14.608;2023-03-24T13:16:03;3.90;;;1.40;;
4565;SDS011;2295;51.050;14.608;2023-03-24T13:18:36;2.00;;;1.67;;
4565;SDS011;2295;51.050;14.608;2023-03-24T13:21:07;2.40;;;1.80;;
4565;SDS011;2295;51.050;14.608;2023-03-24T13:23:43;2.20;;;1.90;;
4565;SDS011;2295;51.050;14.608;2023-03-24T13:26:19;3.50;;;3.20;;
4565;SDS011;2295;51.050;14.608;2023-03-24T13:29:02;16.50;;;5.53;;
4565;SDS011;2295;51.050;14.608;2023-03-24T13:31:40;2.53;;;2.17;;
4565;SDS011;2295;51.050;14.608;2023-03-24T13:34:17;2.10;;;1.40;;
4565;SDS011;2295;51.050;14.608;2023-03-24T13:36:53;1.87;;;1.10;;
4565;SDS011;2295;51.050;14.608;2023-03-24T13:39:25;5.73;;;1.33;;
4565;SDS011;2295;51.050;14.608;2023-03-24T13:41:56;2.30;;;1.20;;
4565;SDS011;2295;51.050;14.608;2023-03-24T13:44:27;2.10;;;1.20;;
4565;SDS011;2295;51.050;14.608;2023-03-24T13:47:07;2.90;;;1.47;;
4565;SDS011;2295;51.050;14.608;2023-03-24T13:49:40;3.97;;;3.47;;
4565;SDS011;2295;51.050;14.608;2023-03-24T13:52:25;3.37;;;2.57;;
4565;SDS011;2295;51.050;14.608;2023-03-24T13:54:58;2.40;;;1.57;;
4565;SDS011;2295;51.050;14.608;2023-03-24T13:57:29;1.63;;;1.43;;
4565;SDS011;2295;51.050;14.608;2023-03-24T14:00:00;1.50;;;1.10;;
4565;SDS011;2295;51.050;14.608;2023-03-24T14:02:47;1.30;;;1.20;;
4565;SDS011;2295;51.050;14.608;2023-03-24T14:05:30;1.23;;;1.13;;
4565;SDS011;2295;51.050;14.608;2023-03-24T14:08:11;1.75;;;1.25;;
4565;SDS011;2295;51.050;14.608;2023-03-24T14:10:42;1.63;;;1.50;;
4565;SDS011;2295;51.050;14.608;2023-03-24T14:13:19;7.18;;;2.45;;
4565;SDS011;2295;51.050;14.608;2023-03-24T14:15:50;7.67;;;2.30;;
4565;SDS011;2295;51.050;14.608;2023-03-24T14:18:39;3.17;;;1.10;;
4565;SDS011;2295;51.050;14.608;2023-03-24T14:21:09;2.90;;;1.20;;
4565;SDS011;2295;51.050;14.608;2023-03-24T14:23:38;1.50;;;1.20;;
4565;SDS011;2295;51.050;14.608;2023-03-24T14:26:11;5.90;;;1.73;;
4565;SDS011;2295;51.050;14.608;2023-03-24T14:28:44;1.17;;;1.10;;
4565;SDS011;2295;51.050;14.608;2023-03-24T14:31:20;1.30;;;1.20;;
4565;SDS011;2295;51.050;14.608;2023-03-24T14:33:59;2.30;;;1.20;;
4565;SDS011;2295;51.050;14.608;2023-03-24T14:36:36;4.77;;;1.10;;
4565;SDS011;2295;51.050;14.608;2023-03-24T14:39:11;1.30;;;1.20;;
4565;SDS011;2295;51.050;14.608;2023-03-24T14:41:49;1.20;;;1.10;;
4565;SDS011;2295;51.050;14.608;2023-03-24T14:47:21;1.23;;;1.13;;
4565;SDS011;2295;51.050;14.608;2023-03-24T14:49:57;3.20;;;1.00;;
4565;SDS011;2295;51.050;14.608;2023-03-24T14:52:31;2.97;;;1.10;;
4565;SDS011;2295;51.050;14.608;2023-03-24T14:55:04;2.50;;;1.20;;
4565;SDS011;2295;51.050;14.608;2023-03-24T14:57:47;1.60;;;1.00;;
4565;SDS011;2295;51.050;14.608;2023-03-24T15:00:19;1.13;;;1.03;;
4565;SDS011;2295;51.050;14.608;2023-03-24T15:02:55;2.60;;;1.30;;
4565;SDS011;2295;51.050;14.608;2023-03-24T15:05:29;7.75;;;1.70;;
4565;SDS011;2295;51.050;14.608;2023-03-24T15:08:10;1.55;;;1.20;;
4565;SDS011;2295;51.050;14.608;2023-03-24T15:10:42;1.10;;;0.85;;
4565;SDS011;2295;51.050;14.608;2023-03-24T15:13:30;1.08;;;0.90;;
4565;SDS011;2295;51.050;14.608;2023-03-24T15:16:05;3.17;;;1.85;;
4565;SDS011;2295;51.050;14.608;2023-03-24T15:18:48;3.20;;;1.17;;
4565;SDS011;2295;51.050;14.608;2023-03-24T15:21:31;1.55;;;1.23;;
4565;SDS011;2295;51.050;14.608;2023-03-24T15:24:02;1.75;;;1.20;;
4565;SDS011;2295;51.050;14.608;2023-03-24T15:27:13;6.05;;;1.10;;
4565;SDS011;2295;51.050;14.608;2023-03-24T15:29:48;1.60;;;1.23;;
4565;SDS011;2295;51.050;14.608;2023-03-24T15:32:21;2.55;;;1.40;;
4565;SDS011;2295;51.050;14.608;2023-03-24T15:34:53;3.40;;;1.60;;
4565;SDS011;2295;51.050;14.608;2023-03-24T15:37:30;5.20;;;1.30;;
4565;SDS011;2295;51.050;14.608;2023-03-24T15:40:00;2.55;;;1.20;;
4565;SDS011;2295;51.050;14.608;2023-03-24T15:42:41;1.83;;;1.20;;
4565;SDS011;2295;51.050;14.608;2023-03-24T15:45:18;4.55;;;1.30;;
4565;SDS011;2295;51.050;14.608;2023-03-24T15:47:51;3.10;;;1.20;;
4565;SDS011;2295;51.050;14.608;2023-03-24T15:50:28;2.75;;;1.15;;
4565;SDS011;2295;51.050;14.608;2023-03-24T15:53:00;2.72;;;1.30;;
4565;SDS011;2295;51.050;14.608;2023-03-24T15:55:34;2.03;;;1.50;;
4565;SDS011;2295;51.050;14.608;2023-03-24T15:58:17;1.88;;;1.40;;
4565;SDS011;2295;51.050;14.608;2023-03-24T16:00:48;1.98;;;1.38;;
4565;SDS011;2295;51.050;14.608;2023-03-24T16:03:22;2.88;;;1.30;;
4565;SDS011;2295;51.050;14.608;2023-03-24T16:05:58;1.65;;;1.40;;